Time;durP1;ratioP1;P1;durP2;ratioP2;P2;SDS_P1;SDS_P2;PMS_P1;PMS_P2;Temp;Humidity;BMP_temperature;BMP_pressure;BME280_temperature;BME280_humidity;BME280_pressure;Samples;Min_cycle;Max_cycle;Signal;HPM_P1;HPM_P2
2023/02/22 00:00:48;;;;;;;2.92;2.10;;;;;;;10.41;38.25;96215.03;5056039;28;20080;-68
2023/02/22 00:03:17;;;;;;;2.45;1.85;;;;;;;10.35;38.64;96217.91;5055954;28;20487;-66
2023/02/22 00:05:47;;;;;;;4.50;1.98;;;;;;;10.34;38.59;96230.13;5055905;28;20399;-68
2023/02/22 00:08:15;;;;;;;4.57;2.28;;;;;;;10.14;40.40;96225.72;5056203;28;20450;-65
2023/02/22 00:10:43;;;;;;;1.85;1.58;;;;;;;9.84;41.89;96231.28;5056035;28;20052;-65
2023/02/22 00:13:14;;;;;;;5.30;1.70;;;;;;;9.40;41.27;96232.13;5055718;28;20478;-66
2023/02/22 00:15:43;;;;;;;3.40;2.10;;;;;;;9.07;42.59;96231.59;5055362;28;20084;-65
2023/02/22 00:18:13;;;;;;;8.27;1.92;;;;;;;8.91;43.40;96231.28;5055662;28;20107;-69
2023/02/22 00:20:41;;;;;;;2.55;1.80;;;;;;;8.69;43.71;96234.66;5055593;28;20060;-68
2023/02/22 00:23:13;;;;;;;2.78;1.50;;;;;;;8.48;44.02;96233.63;5055578;28;20053;-65
2023/02/22 00:25:40;;;;;;;3.70;1.80;;;;;;;8.31;44.31;96229.84;5055492;28;20076;-67
2023/02/22 00:28:07;;;;;;;3.92;2.60;;;;;;;8.21;44.73;96225.84;5055499;28;20418;-68
2023/02/22 00:30:35;;;;;;;3.80;1.70;;;;;;;7.96;45.25;96227.50;5055451;28;20099;-69
2023/02/22 00:33:02;;;;;;;3.08;1.73;;;;;;;7.93;44.67;96231.97;5055392;28;20482;-67
2023/02/22 00:35:32;;;;;;;3.83;1.88;;;;;;;7.98;44.49;96230.06;5055251;28;20220;-69
2023/02/22 00:38:01;;;;;;;2.58;1.63;;;;;;;7.90;44.55;96232.91;5055106;28;20080;-65
2023/02/22 00:40:30;;;;;;;4.18;1.38;;;;;;;7.93;44.59;96229.34;5055236;28;20044;-65
2023/02/22 00:42:58;;;;;;;2.25;1.75;;;;;;;7.97;44.31;96228.34;5055024;28;20518;-68
2023/02/22 00:45:28;;;;;;;1.73;1.40;;;;;;;8.04;43.35;96221.19;5054331;28;20045;-67
2023/02/22 00:47:57;;;;;;;1.67;1.58;;;;;;;8.14;43.68;96226.94;5055287;28;20106;-64
2023/02/22 00:50:26;;;;;;;3.30;1.60;;;;;;;8.19;43.10;96222.44;5055098;28;20388;-67
2023/02/22 00:52:55;;;;;;;3.03;1.70;;;;;;;8.26;43.14;96223.94;5055017;28;20053;-65
2023/02/22 00:55:25;;;;;;;2.95;1.83;;;;;;;8.39;42.76;96223.50;5055087;28;20040;-64
2023/02/22 00:57:52;;;;;;;2.47;1.73;;;;;;;8.44;42.61;96219.84;5054820;28;20140;-67
2023/02/22 01:00:22;;;;;;;2.00;1.60;;;;;;;8.41;42.63;96217.34;5054846;28;20049;-66
2023/02/22 01:02:50;;;;;;;2.80;1.92;;;;;;;8.40;42.76;96218.22;5054953;28;20083;-68
2023/02/22 01:05:21;;;;;;;2.42;1.65;;;;;;;8.46;42.66;96217.19;5054870;28;20118;-67
2023/02/22 01:07:49;;;;;;;3.45;1.80;;;;;;;8.46;42.47;96219.81;5054764;28;20048;-64
2023/02/22 01:10:18;;;;;;;1.88;1.30;;;;;;;8.46;41.63;96212.00;5054985;28;20049;-64
2023/02/22 01:12:45;;;;;;;2.28;1.25;;;;;;;8.49;42.36;96217.06;5054573;28;20131;-66
2023/02/22 01:15:14;;;;;;;1.88;1.40;;;;;;;8.53;42.01;96215.22;5054389;28;20518;-66
2023/02/22 01:17:42;;;;;;;4.03;1.65;;;;;;;8.51;41.91;96219.63;5054709;28;20072;-67
2023/02/22 01:20:13;;;;;;;2.50;1.50;;;;;;;8.56;41.56;96215.13;5054730;28;20632;-67
2023/02/22 01:22:44;;;;;;;1.25;0.98;;;;;;;8.64;41.61;96212.28;5054468;28;20084;-66
2023/02/22 01:25:15;;;;;;;2.10;1.40;;;;;;;8.65;41.46;96209.59;5054309;28;20041;-67
2023/02/22 01:27:42;;;;;;;;;;;;;;;8.69;41.46;96208.59;5054753;28;20041;-65
2023/02/22 01:30:12;;;;;;;1.67;1.45;;;;;;;8.65;41.55;96209.59;5054454;28;19952;-68
2023/02/22 01:32:41;;;;;;;3.55;1.58;;;;;;;8.57;43.00;96209.00;5054237;28;20049;-65
2023/02/22 01:35:12;;;;;;;2.13;1.80;;;;;;;8.33;44.02;96206.31;5054177;28;20123;-65
2023/02/22 01:37:42;;;;;;;4.40;3.97;;;;;;;8.08;44.67;96215.84;5054058;28;20049;-68
2023/02/22 01:40:16;;;;;;;4.28;1.42;;;;;;;7.83;45.41;96213.19;5054001;28;20410;-64
2023/02/22 01:42:44;;;;;;;3.83;1.80;;;;;;;7.63;45.93;96206.00;5054118;28;20057;-67
2023/02/22 01:45:42;;;;;;;2.28;1.52;;;;;;;7.45;46.48;96205.69;5054003;28;20110;-65
2023/02/22 01:48:13;;;;;;;2.05;1.40;;;;;;;7.27;46.75;96207.94;5053944;28;20522;-64
2023/02/22 01:50:41;;;;;;;;;;;;;;;7.03;47.27;96212.97;5054370;28;20041;-65
2023/02/22 01:53:14;;;;;;;4.90;1.08;;;;;;;6.78;47.81;96215.44;5053887;28;19920;-67
2023/02/22 01:55:42;;;;;;;2.92;1.58;;;;;;;6.66;48.11;96214.88;5053554;28;20491;-64
2023/02/22 01:58:10;;;;;;;1.98;1.58;;;;;;;6.60;48.29;96214.19;5053707;28;20053;-66
2023/02/22 02:00:38;;;;;;;2.28;1.48;;;;;;;6.49;48.07;96217.94;5053800;28;20460;-67
2023/02/22 02:03:11;;;;;;;5.07;1.70;;;;;;;6.44;48.26;96210.25;5053788;28;20057;-65
2023/02/22 02:05:39;;;;;;;1.65;1.30;;;;;;;6.37;48.35;96213.91;5053647;28;20459;-68
2023/02/22 02:08:21;;;;;;;2.03;1.45;;;;;;;6.24;48.39;96210.78;5053825;28;20071;-68
2023/02/22 02:10:49;;;;;;;3.75;2.47;;;;;;;6.18;48.73;96208.34;5053643;28;20045;-64
2023/02/22 02:13:17;;;;;;;4.65;1.75;;;;;;;6.18;49.19;96209.19;5053379;28;20044;-65
2023/02/22 02:15:45;;;;;;;6.47;3.63;;;;;;;6.15;49.89;96216.22;5053104;28;20140;-67
2023/02/22 02:18:14;;;;;;;3.40;2.72;;;;;;;6.04;50.23;96206.09;5053399;28;20438;-63
2023/02/22 02:20:54;;;;;;;3.55;1.95;;;;;;;6.02;49.72;96200.06;5053357;28;20045;-66
2023/02/22 02:23:51;;;;;;;2.08;1.40;;;;;;;6.08;49.41;96199.91;5053285;28;20045;-66
2023/02/22 02:26:51;;;;;;;3.55;2.95;;;;;;;6.08;50.41;96210.31;5053503;28;20139;-66
2023/02/22 02:29:49;;;;;;;2.38;1.50;;;;;;;5.97;49.91;96207.97;5053300;28;20493;-65
2023/02/22 02:32:27;;;;;;;2.42;2.17;;;;;;;5.95;50.56;96212.34;5053108;28;20075;-64
2023/02/22 02:35:03;;;;;;;2.22;1.90;;;;;;;5.98;50.63;96217.47;5053372;28;20060;-66
2023/02/22 02:37:41;;;;;;;2.55;1.98;;;;;;;5.97;50.27;96220.94;5053081;28;20479;-65
2023/02/22 02:40:19;;;;;;;3.08;2.15;;;;;;;5.90;50.78;96222.84;5053124;28;20557;-65
2023/02/22 02:42:55;;;;;;;6.93;2.28;;;;;;;5.76;51.03;96223.19;5053033;28;20048;-63
2023/02/22 02:45:30;;;;;;;3.67;2.25;;;;;;;5.75;51.06;96234.44;5053198;28;20128;-67
2023/02/22 02:48:02;;;;;;;2.72;1.55;;;;;;;5.72;50.78;96223.28;5052933;28;20049;-67
2023/02/22 02:50:32;;;;;;;12.50;4.15;;;;;;;5.68;51.08;96225.09;5052986;28;20080;-67
2023/02/22 02:53:05;;;;;;;2.20;1.80;;;;;;;5.54;51.15;96234.03;5052900;28;20567;-65
2023/02/22 02:55:35;;;;;;;2.40;2.00;;;;;;;5.51;50.84;96231.53;5052931;28;20087;-64
2023/02/22 02:58:03;;;;;;;7.63;2.78;;;;;;;5.50;51.63;96224.63;5052763;28;20457;-67
2023/02/22 03:00:38;;;;;;;3.47;2.90;;;;;;;5.55;51.05;96233.19;5052968;28;20123;-64
2023/02/22 03:03:36;;;;;;;4.80;2.50;;;;;;;5.59;51.18;96233.09;5052790;28;20049;-67
2023/02/22 03:06:29;;;;;;;3.13;2.83;;;;;;;5.84;50.44;96222.97;5052731;28;20072;-67
2023/02/22 03:09:02;;;;;;;8.82;4.63;;;;;;;5.82;50.99;96223.00;5056791;28;20106;-67
2023/02/22 03:11:37;;;;;;;6.75;2.63;;;;;;;5.75;50.98;96226.66;5056936;28;20385;-68
2023/02/22 03:14:16;;;;;;;2.67;1.48;;;;;;;5.70;50.81;96236.31;5056786;28;20055;-65
2023/02/22 03:16:49;;;;;;;5.30;2.25;;;;;;;5.78;50.84;96229.16;5056456;28;20060;-65
2023/02/22 03:19:26;;;;;;;4.40;2.65;;;;;;;5.76;51.16;96243.09;5056870;28;20080;-64
2023/02/22 03:22:01;;;;;;;6.05;3.55;;;;;;;5.73;51.59;96241.41;5056837;28;20491;-66
2023/02/22 03:24:33;;;;;;;2.20;1.58;;;;;;;5.82;50.72;96243.78;5056764;28;20045;-67
2023/02/22 03:27:08;;;;;;;2.03;1.40;;;;;;;6.03;49.98;96238.97;5056600;28;20048;-67
2023/02/22 03:29:39;;;;;;;1.40;1.23;;;;;;;6.48;48.92;96242.22;5056697;28;20045;-62
2023/02/22 03:32:13;;;;;;;2.10;1.00;;;;;;;6.74;48.63;96240.66;5056582;28;20057;-66
2023/02/22 03:34:46;;;;;;;1.80;1.10;;;;;;;7.01;47.82;96240.78;5056663;28;20052;-66
2023/02/22 03:37:17;;;;;;;4.75;1.40;;;;;;;7.09;48.39;96240.56;5056530;28;20445;-67
2023/02/22 03:39:47;;;;;;;3.20;1.30;;;;;;;7.08;48.20;96238.84;5056309;28;20139;-67
2023/02/22 03:42:19;;;;;;;1.90;1.10;;;;;;;7.05;48.16;96244.97;5056481;28;20079;-63
2023/02/22 03:44:47;;;;;;;1.83;1.17;;;;;;;7.04;48.13;96240.69;5056312;28;20045;-67
2023/02/22 03:47:22;;;;;;;2.15;1.40;;;;;;;7.05;48.21;96241.53;5056211;28;20052;-67
2023/02/22 03:49:55;;;;;;;1.38;1.23;;;;;;;6.99;48.37;96241.72;5056197;28;20059;-64
2023/02/22 03:52:23;;;;;;;1.20;1.10;;;;;;;7.00;48.37;96239.06;5056215;28;20095;-66
2023/02/22 03:54:53;;;;;;;1.33;1.08;;;;;;;6.98;48.57;96240.03;5056469;28;20076;-68
2023/02/22 03:57:26;;;;;;;2.85;1.27;;;;;;;6.94;49.96;96247.03;5055969;28;20549;-65
2023/02/22 03:59:53;;;;;;;1.75;1.38;;;;;;;6.89;49.01;96239.38;5056083;28;20075;-68
2023/02/22 04:02:22;;;;;;;4.85;1.17;;;;;;;6.95;50.15;96247.00;5055860;28;20045;-68
2023/02/22 04:04:51;;;;;;;1.48;0.90;;;;;;;6.95;49.22;96249.59;5055904;28;20076;-65
2023/02/22 04:07:18;;;;;;;1.60;1.00;;;;;;;7.02;49.35;96249.44;5055911;28;20044;-65
2023/02/22 04:09:46;;;;;;;3.63;1.27;;;;;;;7.07;49.36;96247.53;5055955;28;20053;-67
2023/02/22 04:12:13;;;;;;;2.88;1.20;;;;;;;7.05;49.80;96242.38;5055854;28;20400;-65
2023/02/22 04:14:40;;;;;;;2.28;1.27;;;;;;;7.04;50.51;96242.41;5055852;28;20462;-68
2023/02/22 04:17:08;;;;;;;9.00;1.40;;;;;;;7.08;50.31;96241.47;5055650;28;20475;-66
2023/02/22 04:19:35;;;;;;;2.25;1.05;;;;;;;6.96;50.30;96240.06;5055586;28;20049;-68
2023/02/22 04:22:05;;;;;;;2.15;1.40;;;;;;;7.01;50.74;96242.53;5055688;28;20446;-66
2023/02/22 04:24:32;;;;;;;1.00;1.00;;;;;;;6.97;50.24;96251.28;5055832;28;20080;-67
2023/02/22 04:27:00;;;;;;;3.90;1.02;;;;;;;6.98;50.61;96243.44;5055483;28;20047;-68
2023/02/22 04:29:27;;;;;;;1.58;1.10;;;;;;;7.01;50.22;96238.16;5055591;28;20083;-64
2023/02/22 04:31:55;;;;;;;1.40;1.10;;;;;;;7.00;50.09;96243.41;5055579;28;20132;-67
2023/02/22 04:34:22;;;;;;;1.50;1.10;;;;;;;7.01;50.41;96237.34;5055442;28;20045;-68
2023/02/22 04:36:49;;;;;;;2.05;1.42;;;;;;;7.00;50.40;96239.06;5055389;28;20053;-65
2023/02/22 04:39:18;;;;;;;4.55;1.10;;;;;;;7.04;50.22;96239.81;5055209;28;20138;-66
2023/02/22 04:41:46;;;;;;;5.85;1.23;;;;;;;7.08;50.55;96241.47;5055407;28;20099;-68
2023/02/22 04:44:13;;;;;;;2.50;0.93;;;;;;;7.01;50.22;96243.38;5055243;28;20045;-68
2023/02/22 04:46:40;;;;;;;1.40;1.20;;;;;;;7.03;50.23;96239.00;5055225;28;20045;-67
2023/02/22 04:49:08;;;;;;;3.17;1.70;;;;;;;7.07;50.15;96248.41;5055106;28;20102;-65
2023/02/22 04:51:35;;;;;;;2.47;1.20;;;;;;;7.08;50.68;96239.69;5055092;28;20076;-64
2023/02/22 04:54:04;;;;;;;1.13;0.77;;;;;;;7.11;50.96;96245.72;5055047;28;20411;-67
2023/02/22 04:56:32;;;;;;;2.80;1.40;;;;;;;7.14;51.39;96243.03;5055252;28;20083;-67
2023/02/22 04:58:59;;;;;;;7.10;1.27;;;;;;;7.08;51.21;96244.91;5054897;28;20049;-67
2023/02/22 05:01:32;;;;;;;6.60;1.33;;;;;;;7.11;50.64;96245.72;5054769;28;20064;-67
2023/02/22 05:03:59;;;;;;;3.35;1.10;;;;;;;7.13;50.48;96256.94;5054829;28;20136;-68
2023/02/22 05:06:27;;;;;;;3.22;1.95;;;;;;;7.15;50.44;96255.13;5054750;28;20483;-64
2023/02/22 05:08:57;;;;;;;3.35;1.67;;;;;;;7.12;50.10;96250.00;5055011;28;20053;-69
2023/02/22 05:11:24;;;;;;;6.60;1.45;;;;;;;7.12;51.07;96260.41;5054653;28;20045;-67
2023/02/22 05:13:53;;;;;;;2.45;1.30;;;;;;;7.07;50.89;96258.81;5054753;28;20067;-67
2023/02/22 05:16:20;;;;;;;1.83;1.23;;;;;;;7.07;51.53;96256.22;5054486;28;20053;-67
2023/02/22 05:18:48;;;;;;;8.32;1.60;;;;;;;7.10;50.95;96254.41;5054649;28;20048;-68
2023/02/22 05:21:15;;;;;;;4.55;2.67;;;;;;;7.14;51.28;96259.50;5054622;28;20056;-67
2023/02/22 05:23:43;;;;;;;17.08;8.95;;;;;;;7.19;50.67;96269.75;5054495;28;20447;-68
2023/02/22 05:26:10;;;;;;;16.80;8.75;;;;;;;7.18;50.76;96265.44;5054620;28;20049;-65
2023/02/22 05:28:37;;;;;;;14.77;5.05;;;;;;;7.30;51.02;96269.44;5054287;28;20099;-69
2023/02/22 05:31:07;;;;;;;2.00;1.60;;;;;;;7.30;50.95;96269.44;5053629;28;20128;-64
2023/02/22 05:33:34;;;;;;;2.50;1.40;;;;;;;7.26;50.62;96271.31;5054436;28;20049;-66
2023/02/22 05:36:01;;;;;;;2.05;1.50;;;;;;;7.25;51.01;96276.53;5054337;28;20064;-66
2023/02/22 05:38:28;;;;;;;1.88;1.33;;;;;;;7.24;51.87;96277.41;5054085;28;20139;-66
2023/02/22 05:40:56;;;;;;;1.20;1.10;;;;;;;7.32;52.12;96280.66;5054335;28;20091;-65
2023/02/22 05:43:23;;;;;;;5.38;1.33;;;;;;;7.31;52.61;96286.75;5054083;28;20057;-68
2023/02/22 05:45:51;;;;;;;39.03;26.73;;;;;;;7.32;53.33;96281.50;5054175;28;20483;-68
2023/02/22 05:48:20;;;;;;;17.90;8.10;;;;;;;7.32;54.04;96283.28;5054039;28;20406;-69
2023/02/22 05:50:48;;;;;;;2.40;1.83;;;;;;;7.42;53.98;96289.03;5053893;28;20053;-68
2023/02/22 05:53:16;;;;;;;4.50;2.92;;;;;;;7.46;53.66;96286.31;5053959;28;20381;-65
2023/02/22 05:55:43;;;;;;;5.72;4.25;;;;;;;7.56;53.48;96280.84;5054133;28;20637;-69
2023/02/22 05:58:10;;;;;;;11.43;4.88;;;;;;;7.65;52.59;96295.31;5053658;28;20141;-67
2023/02/22 06:00:38;;;;;;;12.63;4.13;;;;;;;7.74;52.02;96296.78;5053631;28;20132;-67
2023/02/22 06:03:06;;;;;;;7.00;3.65;;;;;;;7.78;51.67;96293.19;5053731;28;20056;-66
2023/02/22 06:05:36;;;;;;;9.63;4.15;;;;;;;7.84;51.96;96301.69;5053746;28;20095;-68
2023/02/22 06:08:04;;;;;;;6.03;3.42;;;;;;;7.89;52.27;96300.69;5053736;28;20123;-67
2023/02/22 06:10:32;;;;;;;5.13;2.53;;;;;;;7.96;51.04;96310.00;5053691;28;20450;-65
2023/02/22 06:13:00;;;;;;;11.43;3.40;;;;;;;7.95;51.79;96308.31;5053465;28;20494;-69
2023/02/22 06:15:29;;;;;;;10.50;3.42;;;;;;;8.02;51.63;96311.56;5053328;28;20473;-69
2023/02/22 06:17:57;;;;;;;3.42;1.55;;;;;;;8.06;53.06;96316.63;5053445;28;20139;-68
2023/02/22 06:20:26;;;;;;;1.20;1.10;;;;;;;8.13;53.40;96312.06;5053354;28;20057;-66
2023/02/22 06:22:58;;;;;;;3.63;1.60;;;;;;;8.16;53.07;96314.56;5053482;28;20431;-64
2023/02/22 06:25:27;;;;;;;1.80;1.50;;;;;;;8.22;52.80;96322.19;5053498;28;20491;-69
2023/02/22 06:27:54;;;;;;;3.08;1.92;;;;;;;8.30;52.45;96316.75;5053280;28;20077;-68
2023/02/22 06:30:23;;;;;;;10.07;3.17;;;;;;;8.45;52.29;96324.97;5053290;28;20479;-70
2023/02/22 06:32:51;;;;;;;6.75;3.80;;;;;;;8.74;52.05;96327.53;5053409;28;20131;-65
2023/02/22 06:35:19;;;;;;;10.02;2.22;;;;;;;9.24;51.22;96334.47;5053108;28;20106;-66
2023/02/22 06:37:46;;;;;;;9.18;1.48;;;;;;;9.34;50.08;96333.25;5053323;28;20463;-69
2023/02/22 06:40:16;;;;;;;5.35;1.20;;;;;;;9.50;51.04;96329.22;5053128;28;20045;-65
2023/02/22 06:42:43;;;;;;;2.33;1.30;;;;;;;9.88;49.72;96316.47;5052150;28;20080;-66
2023/02/22 06:45:11;;;;;;;2.25;1.60;;;;;;;10.13;48.85;96325.97;5053065;28;20128;-68
2023/02/22 06:47:40;;;;;;;1.35;1.05;;;;;;;10.93;48.39;96322.78;5052934;28;20095;-65
2023/02/22 06:50:17;;;;;;;2.65;1.38;;;;;;;12.63;43.88;96321.13;5053021;28;20048;-69
2023/02/22 06:52:46;;;;;;;6.15;1.27;;;;;;;14.25;42.03;96318.88;5052935;28;20076;-66
2023/02/22 06:55:19;;;;;;;2.50;1.48;;;;;;;15.57;37.18;96304.22;5052940;28;20045;-66
2023/02/22 06:57:46;;;;;;;3.55;1.00;;;;;;;16.99;33.22;96314.53;5052879;28;20056;-69
2023/02/22 07:00:16;;;;;;;2.10;1.17;;;;;;;19.05;29.30;96312.38;5052963;28;20076;-67
2023/02/22 07:02:43;;;;;;;9.50;1.60;;;;;;;20.80;28.60;96318.16;5052932;28;20056;-65
2023/02/22 07:05:12;;;;;;;1.92;1.17;;;;;;;22.02;26.38;96315.06;5052961;28;20045;-68
2023/02/22 07:07:40;;;;;;;2.17;1.13;;;;;;;23.04;24.15;96312.25;5052899;28;20055;-65
2023/02/22 07:10:09;;;;;;;1.60;1.30;;;;;;;23.92;23.06;96308.50;5052863;28;20052;-66
2023/02/22 07:12:37;;;;;;;3.72;1.33;;;;;;;24.97;22.34;96309.94;5052720;28;20049;-66
2023/02/22 07:15:05;;;;;;;4.40;1.25;;;;;;;26.07;20.92;96314.94;5052579;28;20059;-67
2023/02/22 07:17:32;;;;;;;3.72;1.45;;;;;;;27.08;19.55;96317.69;5052888;28;20394;-64
2023/02/22 07:19:59;;;;;;;2.22;1.30;;;;;;;27.53;19.19;96311.91;5052650;28;20574;-65
2023/02/22 07:22:27;;;;;;;4.85;1.67;;;;;;;27.97;18.53;96307.13;5052733;28;20159;-65
2023/02/22 07:24:54;;;;;;;2.10;1.13;;;;;;;28.57;18.25;96304.81;5052699;28;20084;-65
2023/02/22 07:27:21;;;;;;;5.25;1.27;;;;;;;28.84;17.67;96302.59;5052702;28;20556;-67
2023/02/22 07:29:50;;;;;;;6.10;1.27;;;;;;;29.42;16.84;96311.19;5052568;28;20041;-64
2023/02/22 07:32:17;;;;;;;2.30;1.40;;;;;;;29.70;15.46;96307.91;5052637;28;20049;-65
2023/02/22 07:34:45;;;;;;;2.33;1.30;;;;;;;29.90;15.79;96302.81;5052634;28;20048;-64
2023/02/22 07:37:12;;;;;;;3.80;1.67;;;;;;;30.30;15.86;96307.88;5052498;28;20071;-67
2023/02/22 07:39:42;;;;;;;2.08;1.20;;;;;;;30.45;14.75;96307.84;5052463;28;20495;-64
2023/02/22 07:42:09;;;;;;;3.03;1.10;;;;;;;31.04;13.35;96301.59;5052574;28;20045;-67
2023/02/22 07:44:36;;;;;;;2.38;1.30;;;;;;;31.09;13.45;96293.75;5052838;28;20491;-66
2023/02/22 07:47:05;;;;;;;1.60;1.20;;;;;;;31.47;13.61;96298.84;5052621;28;20403;-65
2023/02/22 07:49:32;;;;;;;1.77;1.20;;;;;;;31.62;13.49;96295.19;5052484;28;20403;-67
2023/02/22 07:51:59;;;;;;;3.08;1.42;;;;;;;31.30;14.04;96295.56;5052545;28;20051;-66
2023/02/22 07:54:26;;;;;;;3.63;1.10;;;;;;;30.27;14.64;96284.84;5055414;28;20048;-66
2023/02/22 07:56:53;;;;;;;2.30;1.40;;;;;;;30.74;14.28;96287.19;5056119;28;20094;-65
2023/02/22 07:59:21;;;;;;;1.80;1.27;;;;;;;30.76;14.63;96281.63;5056097;28;20080;-66
2023/02/22 08:01:50;;;;;;;4.57;1.40;;;;;;;29.92;15.48;96281.91;5055937;28;20045;-67
2023/02/22 08:04:19;;;;;;;1.87;1.30;;;;;;;29.24;15.91;96277.38;5056242;28;20053;-66
2023/02/22 08:06:46;;;;;;;2.22;1.27;;;;;;;27.66;17.21;96268.44;5055956;28;20135;-64
2023/02/22 08:09:13;;;;;;;1.52;1.00;;;;;;;26.86;18.30;96278.94;5055873;28;20048;-66
2023/02/22 08:11:40;;;;;;;11.00;5.38;;;;;;;25.64;19.05;96278.25;5055936;28;20049;-65
2023/02/22 08:14:08;;;;;;;2.70;1.50;;;;;;;25.20;19.77;96277.31;5055961;28;20442;-66
2023/02/22 08:16:35;;;;;;;1.70;1.35;;;;;;;24.68;20.20;96281.59;5055730;28;20487;-66
2023/02/22 08:19:02;;;;;;;2.38;1.42;;;;;;;24.38;20.91;96278.28;5055880;28;20088;-66
2023/02/22 08:21:30;;;;;;;1.90;1.58;;;;;;;23.95;20.26;96275.31;5055668;28;20106;-63
2023/02/22 08:23:57;;;;;;;2.28;1.20;;;;;;;23.23;21.75;96274.88;5055594;28;20140;-64
2023/02/22 08:26:24;;;;;;;2.42;1.40;;;;;;;22.85;21.93;96273.97;5055495;28;20055;-64
2023/02/22 08:28:52;;;;;;;3.80;1.70;;;;;;;22.09;23.23;96277.13;5055461;28;20095;-67
2023/02/22 08:31:19;;;;;;;2.30;1.17;;;;;;;21.67;22.97;96269.28;5055538;28;20128;-66
2023/02/22 08:33:48;;;;;;;1.95;1.15;;;;;;;21.56;23.09;96272.88;5055821;28;20080;-64
2023/02/22 08:36:17;;;;;;;4.00;1.37;;;;;;;21.53;24.48;96270.47;5055376;28;20052;-63
2023/02/22 08:38:46;;;;;;;2.45;1.55;;;;;;;21.68;24.47;96271.81;5055316;28;20053;-64
2023/02/22 08:41:13;;;;;;;4.75;1.23;;;;;;;21.54;23.48;96262.38;5055410;28;20072;-63
2023/02/22 08:43:40;;;;;;;1.50;1.20;;;;;;;21.75;23.04;96272.13;5055414;28;20049;-65
2023/02/22 08:46:07;;;;;;;1.33;1.05;;;;;;;21.81;22.96;96273.41;5055619;28;20053;-63
2023/02/22 08:48:35;;;;;;;1.25;1.08;;;;;;;21.83;23.10;96274.94;5055128;28;20111;-64
2023/02/22 08:51:02;;;;;;;2.65;1.27;;;;;;;21.89;22.59;96268.25;5055102;28;20481;-68
2023/02/22 08:53:31;;;;;;;3.28;1.30;;;;;;;21.93;21.89;96277.66;5055086;28;20053;-62
2023/02/22 08:56:00;;;;;;;1.48;1.20;;;;;;;21.87;22.23;96275.53;5055175;28;20107;-64
2023/02/22 08:58:27;;;;;;;1.38;1.10;;;;;;;21.85;21.64;96269.47;5055202;28;20128;-66
2023/02/22 09:00:54;;;;;;;1.73;1.42;;;;;;;21.45;21.78;96272.00;5055064;28;20094;-64
2023/02/22 09:03:21;;;;;;;2.33;1.30;;;;;;;20.95;22.55;96275.38;5054900;28;20045;-63
2023/02/22 09:05:48;;;;;;;2.00;1.40;;;;;;;20.70;22.91;96264.94;5053834;28;20566;-65
2023/02/22 09:08:17;;;;;;;2.00;1.35;;;;;;;20.64;23.41;96265.47;5054826;28;20045;-65
2023/02/22 09:10:45;;;;;;;2.60;1.50;;;;;;;20.77;24.19;96269.75;5054760;28;20140;-62
2023/02/22 09:13:14;;;;;;;2.58;1.48;;;;;;;20.82;23.42;96268.38;5054692;28;20406;-64
2023/02/22 09:15:41;;;;;;;2.50;1.52;;;;;;;20.52;24.05;96269.13;5054594;28;20057;-66
2023/02/22 09:18:10;;;;;;;1.42;1.30;;;;;;;20.40;23.63;96263.00;5054516;28;20087;-66
2023/02/22 09:20:37;;;;;;;2.65;1.40;;;;;;;20.52;22.99;96261.16;5054564;28;20044;-65
2023/02/22 09:23:06;;;;;;;3.22;1.80;;;;;;;20.54;23.58;96264.53;5054546;28;20052;-67
2023/02/22 09:25:34;;;;;;;1.80;1.48;;;;;;;20.56;23.82;96258.13;5054545;28;20057;-63
2023/02/22 09:28:02;;;;;;;1.63;1.42;;;;;;;20.62;24.29;96254.09;5054357;28;20049;-65
2023/02/22 09:30:33;;;;;;;4.00;1.42;;;;;;;20.59;24.49;96251.72;5054376;28;20065;-66
2023/02/22 09:33:02;;;;;;;2.13;1.70;;;;;;;20.79;23.51;96265.13;5054585;28;20045;-65
2023/02/22 09:35:30;;;;;;;2.55;1.50;;;;;;;20.84;23.27;96260.28;5054293;28;20052;-63
2023/02/22 09:37:58;;;;;;;2.13;1.60;;;;;;;20.92;23.01;96251.69;5054162;28;20052;-65
2023/02/22 09:40:29;;;;;;;3.92;1.73;;;;;;;20.93;24.04;96246.25;5054240;28;20130;-66
2023/02/22 09:43:09;;;;;;;3.65;1.60;;;;;;;20.71;23.94;96249.84;5054154;28;20080;-64
2023/02/22 09:45:47;;;;;;;4.43;1.85;;;;;;;20.71;25.70;96256.00;5054253;28;20076;-66
2023/02/22 09:48:17;;;;;;;2.30;1.75;;;;;;;20.59;25.27;96249.06;5054445;28;20114;-65
2023/02/22 09:50:49;;;;;;;2.13;1.85;;;;;;;20.64;24.66;96251.31;5054026;28;20059;-68
2023/02/22 09:53:28;;;;;;;2.10;1.77;;;;;;;20.43;25.09;96247.69;5053959;28;20408;-67
2023/02/22 09:55:59;;;;;;;2.78;1.90;;;;;;;20.09;25.51;96247.81;5053886;28;20045;-65
2023/02/22 09:58:32;;;;;;;3.53;2.47;;;;;;;20.06;26.24;96246.25;5053898;28;20106;-66
2023/02/22 10:01:16;;;;;;;2.60;1.92;;;;;;;20.08;25.79;96256.75;5054042;28;20095;-64
2023/02/22 10:03:50;;;;;;;3.55;1.70;;;;;;;20.18;25.37;96243.56;5053799;28;20049;-66
2023/02/22 10:06:24;;;;;;;3.38;1.42;;;;;;;20.32;24.78;96247.75;5053717;28;20059;-66
2023/02/22 10:08:55;;;;;;;2.90;1.73;;;;;;;20.30;24.60;96239.03;5053529;28;20482;-63
2023/02/22 10:11:41;;;;;;;3.45;1.50;;;;;;;20.35;24.35;96231.56;5053477;28;20048;-67
2023/02/22 10:14:27;;;;;;;2.95;2.08;;;;;;;20.24;24.93;96242.19;5053502;28;20049;-67
2023/02/22 10:17:05;;;;;;;2.13;1.40;;;;;;;20.21;24.49;96235.34;5053161;28;20059;-65
2023/02/22 10:19:41;;;;;;;2.75;1.52;;;;;;;20.28;26.30;96225.03;5053440;28;20053;-64
2023/02/22 10:22:36;;;;;;;3.67;1.70;;;;;;;20.29;25.27;96229.41;5053392;28;20122;-66
2023/02/22 10:25:11;;;;;;;2.83;1.90;;;;;;;20.33;25.02;96229.03;5053298;28;20041;-63
2023/02/22 10:27:41;;;;;;;2.65;1.60;;;;;;;20.35;25.91;96215.63;5053187;28;20111;-65
2023/02/22 10:30:20;;;;;;;3.05;1.90;;;;;;;20.26;24.63;96219.03;5053376;28;20077;-67
2023/02/22 10:32:52;;;;;;;2.15;1.95;;;;;;;20.26;25.35;96222.50;5053589;28;20128;-67
2023/02/22 10:35:23;;;;;;;2.38;1.80;;;;;;;20.24;25.05;96205.03;5053365;28;20442;-65
2023/02/22 10:37:55;;;;;;;3.33;1.85;;;;;;;20.32;25.94;96215.88;5053261;28;20103;-66
2023/02/22 10:40:30;;;;;;;1.88;1.75;;;;;;;20.24;24.44;96208.53;5053060;28;20057;-66
2023/02/22 10:43:03;;;;;;;2.20;1.73;;;;;;;20.06;25.16;96195.81;5053028;28;20491;-65
2023/02/22 10:45:32;;;;;;;1.90;1.63;;;;;;;20.04;25.97;96191.56;5052950;28;20071;-66
2023/02/22 10:48:07;;;;;;;4.30;1.88;;;;;;;19.99;25.80;96197.25;5053273;28;20140;-63
2023/02/22 10:50:36;;;;;;;2.92;2.00;;;;;;;19.85;25.77;96186.91;5053136;28;20053;-68
2023/02/22 10:53:03;;;;;;;2.58;1.90;;;;;;;19.75;25.64;96185.00;5053023;28;20484;-64
2023/02/22 10:55:31;;;;;;;4.90;1.80;;;;;;;19.73;25.86;96183.44;5052970;28;20094;-65
2023/02/22 10:58:05;;;;;;;3.63;1.83;;;;;;;19.65;25.75;96184.91;5053062;28;20242;-65
2023/02/22 11:00:36;;;;;;;2.53;1.65;;;;;;;19.63;25.90;96178.06;5052843;28;20102;-67
2023/02/22 11:03:16;;;;;;;2.95;1.35;;;;;;;19.57;26.35;96171.44;5052958;28;20049;-65
2023/02/22 11:05:44;;;;;;;;;;;;;;;19.59;26.00;96168.66;5053259;28;20133;-64
2023/02/22 11:08:22;;;;;;;4.22;1.88;;;;;;;19.60;27.02;96171.19;5052841;28;19921;-65
2023/02/22 11:10:51;;;;;;;3.92;2.00;;;;;;;19.62;25.45;96174.53;5052783;28;20051;-68
2023/02/22 11:13:24;;;;;;;4.95;1.70;;;;;;;19.76;26.79;96162.81;5052662;28;20053;-69
2023/02/22 11:15:52;;;;;;;3.00;1.90;;;;;;;19.85;25.76;96166.53;5052795;28;20132;-66
2023/02/22 11:18:26;;;;;;;4.95;1.90;;;;;;;20.01;25.34;96171.44;5052772;28;20053;-66
2023/02/22 11:21:06;;;;;;;5.68;1.60;;;;;;;20.04;25.40;96159.72;5052660;28;20049;-66
2023/02/22 11:23:34;;;;;;;4.30;1.67;;;;;;;20.16;24.85;96158.72;5052723;28;20438;-66
2023/02/22 11:26:09;;;;;;;6.35;3.10;;;;;;;20.30;25.14;96154.06;5052633;28;20045;-67
2023/02/22 11:28:37;;;;;;;3.53;1.90;;;;;;;20.24;25.22;96154.56;5054355;28;20110;-68
2023/02/22 11:31:16;;;;;;;3.05;1.52;;;;;;;20.13;25.23;96151.00;5056593;28;20127;-65
2023/02/22 11:33:51;;;;;;;12.52;2.30;;;;;;;20.15;25.32;96145.56;5056695;28;20120;-67
2023/02/22 11:36:32;;;;;;;5.32;1.77;;;;;;;20.17;26.46;96147.13;5056649;28;20144;-67
2023/02/22 11:38:59;;;;;;;2.15;1.80;;;;;;;20.16;25.72;96153.41;5056505;28;20056;-66
2023/02/22 11:41:29;;;;;;;2.35;1.95;;;;;;;20.26;25.14;96144.69;5056394;28;20052;-66
2023/02/22 11:44:14;;;;;;;2.70;1.98;;;;;;;20.29;25.22;96136.47;5056449;28;20075;-67
2023/02/22 11:46:43;;;;;;;2.22;1.95;;;;;;;20.12;25.84;96143.16;5056369;28;20487;-68
2023/02/22 11:49:16;;;;;;;2.25;1.67;;;;;;;20.14;25.66;96135.94;5056294;28;20064;-65
2023/02/22 11:52:06;;;;;;;3.25;2.03;;;;;;;20.08;25.37;96138.13;5056311;28;20049;-64
2023/02/22 11:54:42;;;;;;;;;;;;;;;20.03;25.13;96131.50;5056618;28;20391;-66